KPWM

Portland International Jetport Airport

Portland, Maine, USA
METAR KPWM 182051Z 03012KT 10SM -RA BKN016 BKN025 OVC037 21/19 A2982 RMK AO2 WSHFT 1943 RAB28 SLP097 P0001 60001 T02110189 53019 $
Observed Flight Rules
Aug-18 @ 20:51 UTC (an hour ago) Marginal Visual Flight Rules
Wind Visibility Clouds Conditions
30° at 12 knots 10 miles
  • Broken at 1,600' AGL
  • Broken at 2,500' AGL
  • Overcast at 3,700' AGL
  • Light Rain
Temperatures Readings Precipitation
Current 21°C / 70°F
Dewpoint 19°C / 66°F
Humidity 88%
Altimeter 29.82" Hg
Pressure 1009.7 hPa
Elevation 15
Current Rain 0.01
METAR KPWM 182051Z 03012KT 10SM -RA BKN016 BKN025 OVC037 21/19 A2982 RMK AO2 WSHFT 1943 RAB28 SLP097 P0001 60001 T02110189 53019 $
Observed Flight Rules
Aug-18 @ 20:51 UTC
(an hour ago)
MVFR
Wind Visibility
30° at 12 knots 10 miles
Clouds
  • Broken at 1,600' AGL
  • Broken at 2,500' AGL
  • Overcast at 3,700' AGL
Conditions
  • Light Rain
Temperature Dewpoint
21°C / 70°F 19°C / 66°F
Humidity Altimeter Pressure
88% 29.82" Hg 1009.7 hPa
Current Rain
0.01